Time;durP1;ratioP1;P1;durP2;ratioP2;P2;SDS_P1;SDS_P2;PMS_P1;PMS_P2;Temp;Humidity;BMP_temperature;BMP_pressure;BME280_temperature;BME280_humidity;BME280_pressure;Samples;Min_cycle;Max_cycle;Signal;HPM_P1;HPM_P2
2022/05/13 00:01:39;;;;;;;;;;;;;;;-144.99;92.08;52362.50;4958779;28;20116;-72
2022/05/13 00:04:06;;;;;;;;;;;;;;;-144.99;91.89;52338.03;4973588;28;20007;-75
2022/05/13 00:06:32;;;;;;;;;;;;;;;-144.99;91.96;52323.75;4976033;28;20485;-74
2022/05/13 00:08:58;;;;;;;;;;;;;;;-144.99;92.86;52378.78;4979736;28;20097;-74
2022/05/13 00:11:25;;;;;;;;;;;;;;;-144.99;92.34;52350.25;4968258;28;19955;-73
2022/05/13 00:13:52;;;;;;;;;;;;;;;-144.99;92.71;52346.19;4961474;28;20374;-73
2022/05/13 00:16:19;;;;;;;;;;;;;;;-144.99;92.87;52342.09;4971024;28;19964;-75
2022/05/13 00:18:45;;;;;;;;;;;;;;;-144.99;93.47;52368.59;4964250;28;19954;-73
2022/05/13 00:21:12;;;;;;;;;;;;;;;-144.99;93.21;52346.19;4986106;28;19970;-75
2022/05/13 00:23:38;;;;;;;;;;;;;;;-144.99;93.76;52362.50;4965678;28;20286;-74
2022/05/13 00:26:04;;;;;;;;;;;;;;;-144.99;94.11;52382.88;4971563;28;19959;-74
2022/05/13 00:28:31;;;;;;;;;;;;;;;-144.99;94.32;52378.78;4970974;28;20341;-75
2022/05/13 00:30:59;;;;;;;;;;;;;;;-144.99;94.26;52329.88;4972312;28;20344;-77
2022/05/13 00:33:25;;;;;;;;;;;;;;;-144.99;94.58;52370.63;4964399;28;20039;-74
2022/05/13 00:35:52;;;;;;;;;;;;;;;-144.99;94.71;52346.19;4970578;28;19970;-74
2022/05/13 00:38:18;;;;;;;;;;;;;;;-144.99;94.79;52346.19;4973621;28;20300;-74
2022/05/13 00:40:46;;;;;;;;;;;;;;;-144.99;94.94;52342.09;4959037;28;19956;-75
2022/05/13 00:43:14;;;;;;;;;;;;;;;-144.99;95.08;52317.66;4972289;28;19990;-73
2022/05/13 00:45:41;;;;;;;;;;;;;;;-144.99;96.05;52342.09;4965146;28;19954;-72
2022/05/13 00:48:09;;;;;;;;;;;;;;;-144.99;96.82;52350.25;4981202;28;20049;-76
2022/05/13 00:50:38;;;;;;;;;;;;;;;-144.99;98.54;52352.28;4970997;28;20037;-76
2022/05/13 00:53:04;;;;;;;;;;;;;;;-144.99;99.72;52362.50;4971075;28;20049;-75
2022/05/13 00:55:34;;;;;;;;;;;;;;;-144.99;100.00;52311.53;4969184;28;20451;-76
2022/05/13 00:58:01;;;;;;;;;;;;;;;-144.99;100.00;52360.44;4976604;28;19970;-75
2022/05/13 01:00:28;;;;;;;;;;;;;;;-144.99;100.00;52350.25;4959798;28;20364;-76
2022/05/13 01:02:55;;;;;;;;;;;;;;;-144.99;100.00;52354.34;4966145;28;19980;-75
2022/05/13 01:05:23;;;;;;;;;;;;;;;-144.99;100.00;52293.19;4988586;28;19968;-75
2022/05/13 01:07:50;;;;;;;;;;;;;;;-144.99;100.00;52358.41;4987408;28;19976;-79
2022/05/13 01:10:19;;;;;;;;;;;;;;;-144.99;100.00;52358.41;4974053;28;19998;-76
2022/05/13 01:12:50;;;;;;;;;;;;;;;-144.99;100.00;52358.41;4964510;28;19994;-76
2022/05/13 01:15:18;;;;;;;;;;;;;;;-144.99;100.00;52329.88;4959779;28;20007;-76
2022/05/13 01:20:31;;;;;;;;;;;;;;;-144.99;100.00;52362.50;4968550;28;19963;-75
2022/05/13 01:23:01;;;;;;;;;;;;;;;-144.99;100.00;52346.19;4964843;28;19997;-73
2022/05/13 01:25:30;;;;;;;;;;;;;;;-144.99;100.00;52354.34;4971025;28;19969;-73
2022/05/13 01:27:57;;;;;;;;;;;;;;;-144.99;100.00;52370.63;4970370;28;19976;-73
2022/05/13 01:30:25;;;;;;;;;;;;;;;-144.99;100.00;52391.03;4966460;28;20372;-73
2022/05/13 01:32:51;;;;;;;;;;;;;;;-144.99;100.00;52329.88;4964859;28;20334;-73
2022/05/13 01:35:18;;;;;;;;;;;;;;;-144.99;100.00;52403.25;4971758;28;20304;-73
2022/05/13 01:37:44;;;;;;;;;;;;;;;-144.99;100.00;52317.66;4966242;28;19972;-73
2022/05/13 01:40:12;;;;;;;;;;;;;;;-144.99;100.00;52358.41;4969369;28;20223;-73
2022/05/13 01:42:39;;;;;;;;;;;;;;;-144.99;100.00;52354.34;4970710;28;19996;-75
2022/05/13 01:45:06;;;;;;;;;;;;;;;-144.99;100.00;52362.50;4961912;28;19984;-75
2022/05/13 01:47:32;;;;;;;;;;;;;;;-144.99;100.00;52336.00;4965142;28;19971;-72
2022/05/13 01:49:59;;;;;;;;;;;;;;;-144.99;100.00;52342.09;4972142;28;19966;-74
2022/05/13 01:52:25;;;;;;;;;;;;;;;-144.99;100.00;52344.16;4962857;28;20356;-76
2022/05/13 01:54:51;;;;;;;;;;;;;;;-144.99;100.00;52348.22;4975744;28;19989;-74
2022/05/13 01:57:19;;;;;;;;;;;;;;;-144.99;100.00;52360.44;4973901;28;19998;-73
2022/05/13 01:59:46;;;;;;;;;;;;;;;-144.99;100.00;52372.69;4975087;28;19981;-74
2022/05/13 02:02:12;;;;;;;;;;;;;;;-144.99;100.00;52329.88;4960442;28;19992;-78
2022/05/13 02:04:38;;;;;;;;;;;;;;;-144.99;100.00;52305.41;4977000;28;19983;-74
2022/05/13 02:07:05;;;;;;;;;;;;;;;-144.99;100.00;52370.63;4971305;28;19969;-75
2022/05/13 02:09:31;;;;;;;;;;;;;;;-144.99;100.00;52362.50;4980551;28;19972;-74
2022/05/13 02:11:58;;;;;;;;;;;;;;;-144.99;100.00;52374.72;4964579;28;20476;-76
2022/05/13 02:14:26;;;;;;;;;;;;;;;-144.99;100.00;52319.69;4965905;28;20021;-74
2022/05/13 02:16:52;;;;;;;;;;;;;;;-144.99;100.00;52380.84;4981485;28;19990;-77
2022/05/13 02:19:18;;;;;;;;;;;;;;;-144.99;100.00;52325.81;4959849;28;19979;-75
2022/05/13 02:21:45;;;;;;;;;;;;;;;-144.99;100.00;52364.53;4973894;28;19986;-75
2022/05/13 02:24:11;;;;;;;;;;;;;;;-144.99;100.00;52350.25;4974211;28;20004;-75
2022/05/13 02:26:37;;;;;;;;;;;;;;;-144.99;100.00;52340.06;4975117;28;19950;-75
2022/05/13 02:29:04;;;;;;;;;;;;;;;-144.99;100.00;52327.84;4973833;28;19948;-74
2022/05/13 02:31:31;;;;;;;;;;;;;;;-144.99;100.00;52348.22;4970818;28;20384;-75
2022/05/13 02:33:58;;;;;;;;;;;;;;;-144.99;100.00;52356.38;4970238;28;20001;-74
2022/05/13 02:36:25;;;;;;;;;;;;;;;-144.99;100.00;52342.09;4973245;28;20053;-74
2022/05/13 02:38:51;;;;;;;;;;;;;;;-144.99;100.00;52317.66;4976096;28;19973;-72
2022/05/13 02:41:17;;;;;;;;;;;;;;;-144.99;100.00;52342.09;4965930;28;19977;-72
2022/05/13 02:43:45;;;;;;;;;;;;;;;-144.99;100.00;52378.78;4962770;28;19969;-74
2022/05/13 02:46:12;;;;;;;;;;;;;;;-144.99;100.00;52350.25;4971063;28;19979;-74
2022/05/13 02:48:40;;;;;;;;;;;;;;;-144.99;100.00;52340.06;4981562;28;20468;-75
2022/05/13 02:51:07;;;;;;;;;;;;;;;-144.99;100.00;52313.56;4971679;28;19971;-73
2022/05/13 02:53:34;;;;;;;;;;;;;;;-144.99;100.00;52366.56;4966562;28;20016;-74
2022/05/13 02:56:00;;;;;;;;;;;;;;;-144.99;100.00;52346.19;4979228;28;19980;-75
2022/05/13 02:58:26;;;;;;;;;;;;;;;-144.99;100.00;52352.28;4980346;28;19988;-75
2022/05/13 03:00:53;;;;;;;;;;;;;;;-144.99;100.00;52348.22;4979464;28;19972;-75
2022/05/13 03:03:19;;;;;;;;;;;;;;;-144.99;100.00;52378.78;4976919;28;19971;-75
2022/05/13 03:05:47;;;;;;;;;;;;;;;-144.99;100.00;52366.56;4979224;28;19983;-72
2022/05/13 03:08:13;;;;;;;;;;;;;;;-144.99;100.00;52325.81;4985524;28;19994;-77
2022/05/13 03:10:40;;;;;;;;;;;;;;;-144.99;100.00;52331.91;4977470;28;20008;-75
2022/05/13 03:13:07;;;;;;;;;;;;;;;-144.99;100.00;52358.41;4970632;28;20461;-73
2022/05/13 03:15:34;;;;;;;;;;;;;;;-144.99;100.00;52362.50;4971943;28;19977;-78
2022/05/13 03:18:00;;;;;;;;;;;;;;;-144.99;100.00;52317.66;4965826;28;19982;-76
2022/05/13 03:20:27;;;;;;;;;;;;;;;-144.99;100.00;52338.03;4974261;28;20024;-75
2022/05/13 03:22:54;;;;;;;;;;;;;;;-144.99;100.00;52358.41;4969326;28;19989;-73
2022/05/13 03:25:21;;;;;;;;;;;;;;;-144.99;100.00;52329.88;4978838;28;20004;-73
2022/05/13 03:27:48;;;;;;;;;;;;;;;-144.99;100.00;52325.81;4974012;28;19969;-73
2022/05/13 03:30:15;;;;;;;;;;;;;;;-144.99;100.00;52303.38;4976022;28;19971;-73
2022/05/13 03:32:42;;;;;;;;;;;;;;;-144.99;100.00;52346.19;4969433;28;19992;-74
2022/05/13 03:35:09;;;;;;;;;;;;;;;-144.99;100.00;52289.13;4972721;28;19996;-73
2022/05/13 03:37:36;;;;;;;;;;;;;;;-144.99;100.00;52350.25;4977515;28;19980;-74
2022/05/13 03:40:05;;;;;;;;;;;;;;;-144.99;100.00;52344.16;4967738;28;19983;-74
2022/05/13 03:42:31;;;;;;;;;;;;;;;-144.99;100.00;52325.81;4973120;28;20034;-74
2022/05/13 03:44:57;;;;;;;;;;;;;;;-144.99;100.00;52366.56;4963759;28;19991;-72
2022/05/13 03:47:24;;;;;;;;;;;;;;;-144.99;100.00;52325.81;4966789;28;19970;-72
2022/05/13 03:49:50;;;;;;;;;;;;;;;-144.99;100.00;52344.16;4970143;28;19981;-74
2022/05/13 03:52:18;;;;;;;;;;;;;;;-144.99;100.00;52325.81;4960979;28;19989;-72
2022/05/13 03:54:44;;;;;;;;;;;;;;;-144.99;100.00;52354.34;4979890;28;19972;-72
2022/05/13 03:57:12;;;;;;;;;;;;;;;-144.99;100.00;52309.50;4967824;28;19975;-75
2022/05/13 03:59:38;;;;;;;;;;;;;;;-144.99;100.00;52317.66;4975687;28;19995;-73
2022/05/13 04:02:05;;;;;;;;;;;;;;;-144.99;100.00;52317.66;4970245;28;20006;-73
2022/05/13 04:08:56;;;;;;;;;;;;;;;-144.99;100.00;52352.28;4975121;28;19979;-73
2022/05/13 04:10:13;;;;;;;;;;;;;;;-144.99;100.00;52354.34;4913138;29;20660;-74
2022/05/13 04:18:09;;;;;;;;;;;;;;;-144.99;100.00;52317.66;4962062;28;19997;-75
2022/05/13 04:20:36;;;;;;;;;;;;;;;-144.99;100.00;52344.16;4972456;28;20321;-76
2022/05/13 04:23:03;;;;;;;;;;;;;;;-144.99;100.00;52305.41;4972350;28;19991;-74
2022/05/13 04:25:29;;;;;;;;;;;;;;;-144.99;100.00;52358.41;4975828;28;19976;-76
2022/05/13 04:27:57;;;;;;;;;;;;;;;-144.99;100.00;52374.72;4975852;28;19975;-76
2022/05/13 04:30:23;;;;;;;;;;;;;;;-144.99;100.00;52372.69;4972547;28;19959;-78
2022/05/13 04:32:49;;;;;;;;;;;;;;;-144.99;100.00;52338.03;4967882;28;19988;-76
2022/05/13 04:35:16;;;;;;;;;;;;;;;-144.99;100.00;52315.59;4963209;28;19968;-75
2022/05/13 04:37:42;;;;;;;;;;;;;;;-144.99;100.00;52311.53;4970638;28;20039;-75
2022/05/13 04:40:09;;;;;;;;;;;;;;;-144.99;100.00;52382.88;4967258;28;20083;-74
2022/05/13 04:42:50;;;;;;;;;;;;;;;-144.99;99.99;52364.53;4972945;28;19998;-75
2022/05/13 04:45:23;;;;;;;;;;;;;;;-144.99;99.39;52346.19;4999315;23;20387;-75
2022/05/13 04:50:34;;;;;;;;;;;;;;;-144.99;100.00;52311.53;4984708;28;20111;-73
2022/05/13 04:53:00;;;;;;;;;;;;;;;-144.99;99.38;52329.88;4990870;28;19983;-74
2022/05/13 04:55:27;;;;;;;;;;;;;;;-144.99;98.93;52342.09;4983569;28;19979;-74
2022/05/13 04:57:53;;;;;;;;;;;;;;;-144.99;97.33;52333.94;4987661;28;19981;-74
2022/05/13 05:00:21;;;;;;;;;;;;;;;-144.99;98.00;52317.66;4988493;28;19975;-74
2022/05/13 05:02:47;;;;;;;;;;;;;;;-144.99;96.54;52333.94;4295070;28;10000726;-74
2022/05/13 05:05:13;;;;;;;;;;;;;;;-144.99;96.30;52364.53;4982518;28;19993;-74
2022/05/13 05:07:40;;;;;;;;;;;;;;;-144.99;95.53;52358.41;4989815;28;19978;-73
2022/05/13 05:10:07;;;;;;;;;;;;;;;-144.99;95.81;52321.72;4982428;28;19966;-73
2022/05/13 05:12:33;;;;;;;;;;;;;;;-144.99;95.77;52342.09;4978146;28;19977;-73
2022/05/13 05:14:59;;;;;;;;;;;;;;;-144.99;96.15;52325.81;4975836;28;20006;-72
2022/05/13 05:17:27;;;;;;;;;;;;;;;-144.99;95.89;52317.66;4974508;28;20336;-72
2022/05/13 05:19:53;;;;;;;;;;;;;;;-144.99;96.34;52325.81;4976460;28;19966;-73
2022/05/13 05:22:20;;;;;;;;;;;;;;;-144.99;96.21;52338.03;4980043;28;19977;-73
2022/05/13 05:24:46;;;;;;;;;;;;;;;-144.99;96.41;52344.16;4984752;28;20537;-73
2022/05/13 05:27:12;;;;;;;;;;;;;;;-144.99;96.43;52317.66;4984994;28;19969;-72
2022/05/13 05:29:39;;;;;;;;;;;;;;;-144.99;95.93;52360.44;4985292;28;19978;-73
2022/05/13 05:32:06;;;;;;;;;;;;;;;-144.99;95.73;52362.50;4985436;28;19975;-73
2022/05/13 05:34:34;;;;;;;;;;;;;;;-144.99;95.07;52346.19;4983784;28;20467;-72
2022/05/13 05:37:00;;;;;;;;;;;;;;;-144.99;94.38;52325.81;4987832;28;19973;-71
2022/05/13 05:39:26;;;;;;;;;;;;;;;-144.99;93.82;52374.72;4979691;28;19975;-72
2022/05/13 05:41:52;;;;;;;;;;;;;;;-144.99;93.16;52340.06;4988026;28;19962;-72
2022/05/13 05:44:19;;;;;;;;;;;;;;;-144.99;92.57;52325.81;4978900;28;20019;-72
2022/05/13 05:46:45;;;;;;;;;;;;;;;-144.99;91.31;52338.03;4982264;28;19978;-72
2022/05/13 05:49:12;;;;;;;;;;;;;;;-144.99;90.80;52346.19;4986619;28;19972;-73
2022/05/13 05:51:39;;;;;;;;;;;;;;;-144.99;90.14;52329.88;4983229;28;20529;-73
2022/05/13 05:59:34;;;;;;;;;;;;;;;-144.99;88.13;52293.19;4987816;28;20119;-71
2022/05/13 06:02:00;;;;;;;;;;;;;;;-144.99;87.62;52285.03;4983343;28;19971;-71
2022/05/13 06:04:26;;;;;;;;;;;;;;;-144.99;86.94;52305.41;4986408;28;20256;-71
2022/05/13 06:06:54;;;;;;;;;;;;;;;-144.99;86.44;52356.38;4988073;28;19977;-71
2022/05/13 06:09:20;;;;;;;;;;;;;;;-144.99;85.95;52386.94;4992115;28;19976;-72
2022/05/13 06:11:46;;;;;;;;;;;;;;;-144.99;85.96;52338.03;4985442;28;20520;-72
2022/05/13 06:14:13;;;;;;;;;;;;;;;-144.99;85.31;52354.34;4981290;28;19998;-71
2022/05/13 06:16:39;;;;;;;;;;;;;;;-144.99;84.40;52346.19;4986824;28;19972;-71
2022/05/13 06:19:06;;;;;;;;;;;;;;;-144.99;84.22;52323.75;4978440;28;20510;-73
2022/05/13 06:21:33;;;;;;;;;;;;;;;-144.99;83.93;52329.88;4985738;28;19967;-74
2022/05/13 06:24:01;;;;;;;;;;;;;;;-144.99;83.34;52346.19;4976750;28;19992;-72
2022/05/13 06:26:28;;;;;;;;;;;;;;;-144.99;82.60;52338.03;4988891;28;19977;-72
2022/05/13 06:28:54;;;;;;;;;;;;;;;-144.99;82.57;52338.03;4984534;28;19997;-72
2022/05/13 06:31:21;;;;;;;;;;;;;;;-144.99;82.46;52346.19;4985704;28;20376;-72
2022/05/13 06:33:47;;;;;;;;;;;;;;;-144.99;82.33;52321.72;4981273;28;19964;-71
2022/05/13 06:36:14;;;;;;;;;;;;;;;-144.99;82.86;52309.50;4988164;28;19966;-73
2022/05/13 06:38:41;;;;;;;;;;;;;;;-144.99;82.81;52336.00;4988627;28;20497;-73
2022/05/13 06:41:09;;;;;;;;;;;;;;;-144.99;82.63;52346.19;4977757;28;20022;-72
2022/05/13 06:43:35;;;;;;;;;;;;;;;-144.99;82.55;52329.88;4982431;28;19966;-72
2022/05/13 06:46:02;;;;;;;;;;;;;;;-144.99;82.32;52362.50;4978859;28;19991;-73
2022/05/13 06:48:28;;;;;;;;;;;;;;;-144.99;82.75;52366.56;4985730;28;19960;-73
2022/05/13 06:50:54;;;;;;;;;;;;;;;-144.99;82.38;52305.41;4979854;28;19968;-72
2022/05/13 06:53:21;;;;;;;;;;;;;;;-144.99;82.62;52321.72;4985635;28;19975;-73
2022/05/13 06:55:49;;;;;;;;;;;;;;;-144.99;82.61;52329.88;4986773;28;19994;-72
2022/05/13 06:58:17;;;;;;;;;;;;;;;-144.99;82.72;52321.72;4986453;28;19974;-72
2022/05/13 07:00:44;;;;;;;;;;;;;;;-144.99;82.94;52307.47;4985390;28;20467;-72
2022/05/13 07:03:11;;;;;;;;;;;;;;;-144.99;83.17;52338.03;4983560;28;20307;-73
2022/05/13 07:05:38;;;;;;;;;;;;;;;-144.99;83.16;52313.56;4978266;28;20000;-73
2022/05/13 07:08:04;;;;;;;;;;;;;;;-144.99;83.31;52362.50;4994350;28;20023;-73
2022/05/13 07:10:31;;;;;;;;;;;;;;;-144.99;83.11;52346.19;4992259;28;20425;-73
2022/05/13 07:12:57;;;;;;;;;;;;;;;-144.99;83.02;52342.09;4988730;28;19969;-72
2022/05/13 07:15:25;;;;;;;;;;;;;;;-144.99;83.14;52346.19;4983632;28;20136;-73
2022/05/13 07:17:51;;;;;;;;;;;;;;;-144.99;82.62;52289.13;4981297;28;20000;-72
2022/05/13 07:20:17;;;;;;;;;;;;;;;-144.99;83.03;52301.34;4985810;28;20237;-73
2022/05/13 07:22:44;;;;;;;;;;;;;;;-144.99;82.16;52338.03;4990632;28;20057;-73
2022/05/13 07:25:10;;;;;;;;;;;;;;;-144.99;81.76;52323.75;4986494;28;19993;-73
2022/05/13 07:27:37;;;;;;;;;;;;;;;-144.99;81.19;52276.88;4988374;28;19996;-74
2022/05/13 07:30:03;;;;;;;;;;;;;;;-144.99;80.92;52293.19;4983986;28;19976;-73
2022/05/13 07:32:31;;;;;;;;;;;;;;;-144.99;80.26;52331.91;4986539;28;19979;-74
2022/05/13 07:34:57;;;;;;;;;;;;;;;-144.99;79.48;52303.38;4989264;28;19987;-74
2022/05/13 07:37:23;;;;;;;;;;;;;;;-144.99;78.59;52293.19;4979600;28;20467;-73
2022/05/13 07:42:33;;;;;;;;;;;;;;;-144.99;80.29;52321.72;4987074;28;19988;-73
2022/05/13 07:45:00;;;;;;;;;;;;;;;-144.99;81.13;52327.84;4985706;28;20400;-72
2022/05/13 07:47:26;;;;;;;;;;;;;;;-144.99;81.17;52346.19;4991465;28;19973;-73
2022/05/13 07:49:54;;;;;;;;;;;;;;;-144.99;80.91;52321.72;4992208;28;19983;-73
2022/05/13 07:52:20;;;;;;;;;;;;;;;-144.99;81.41;52350.25;4991476;28;19977;-71
2022/05/13 07:54:46;;;;;;;;;;;;;;;-144.99;80.63;52333.94;4991014;28;19992;-73
2022/05/13 07:57:13;;;;;;;;;;;;;;;-144.99;80.11;52313.56;4982761;28;20361;-72
2022/05/13 08:02:19;;;;;;;;;;;;;;;-144.99;80.98;52323.75;4992160;28;19974;-72
2022/05/13 08:04:46;;;;;;;;;;;;;;;-144.99;81.09;52297.25;4988484;28;19989;-75
2022/05/13 08:07:13;;;;;;;;;;;;;;;-144.99;81.90;52358.41;4987750;28;19995;-73
2022/05/13 08:09:40;;;;;;;;;;;;;;;-144.99;81.21;52317.66;4992517;28;19974;-74
2022/05/13 08:12:06;;;;;;;;;;;;;;;-144.99;81.12;52325.81;4993683;28;19956;-73
2022/05/13 08:14:32;;;;;;;;;;;;;;;-144.99;81.26;52329.88;4992912;28;19991;-73
2022/05/13 08:16:59;;;;;;;;;;;;;;;-144.99;79.95;52338.03;4994723;28;19967;-74
2022/05/13 08:19:25;;;;;;;;;;;;;;;-144.99;80.19;52280.97;4992418;28;19968;-73
2022/05/13 08:21:51;;;;;;;;;;;;;;;-144.99;80.00;52309.50;4996351;28;19980;-73
2022/05/13 08:24:19;;;;;;;;;;;;;;;-144.99;79.46;52309.50;4995169;28;20580;-73
2022/05/13 08:26:45;;;;;;;;;;;;;;;-144.99;79.44;52299.31;4992059;28;19987;-73
2022/05/13 08:29:12;;;;;;;;;;;;;;;-144.99;79.63;52293.19;4989451;28;20023;-73
2022/05/13 08:31:38;;;;;;;;;;;;;;;-144.99;79.17;52325.81;4994989;28;19976;-73
2022/05/13 08:34:04;;;;;;;;;;;;;;;-144.99;78.36;52313.56;4981412;28;20011;-73
2022/05/13 08:36:31;;;;;;;;;;;;;;;-144.99;77.68;52301.34;4984820;28;19973;-74
2022/05/13 08:38:57;;;;;;;;;;;;;;;-144.99;77.03;52317.66;4987128;28;19988;-74
2022/05/13 08:41:29;;;;;;;;;;;;;;;-144.99;77.05;52309.50;4995536;28;19975;-74
2022/05/13 08:43:57;;;;;;;;;;;;;;;-144.99;76.52;52236.13;4992836;28;20472;-74
2022/05/13 08:46:31;;;;;;;;;;;;;;;-144.99;75.76;52268.72;4987915;28;19995;-74
2022/05/13 08:49:00;;;;;;;;;;;;;;;-144.99;75.79;52276.88;4987729;28;19986;-74
2022/05/13 08:51:31;;;;;;;;;;;;;;;-144.99;75.63;52291.16;4985340;28;19974;-75
2022/05/13 08:54:01;;;;;;;;;;;;;;;-144.99;75.20;52301.34;4988966;28;19986;-73
2022/05/13 08:56:30;;;;;;;;;;;;;;;-144.99;75.07;52252.44;4984169;28;19971;-74
2022/05/13 08:59:00;;;;;;;;;;;;;;;-144.99;73.28;52297.25;4979557;28;20484;-75
2022/05/13 09:01:29;;;;;;;;;;;;;;;-144.99;73.84;52293.19;4989699;28;20034;-73
2022/05/13 09:03:59;;;;;;;;;;;;;;;-144.99;74.07;52285.03;4985264;28;20016;-73
2022/05/13 09:06:30;;;;;;;;;;;;;;;-144.99;73.98;52301.34;4984396;28;20007;-74
2022/05/13 09:08:58;;;;;;;;;;;;;;;-144.99;73.63;52240.19;4990941;28;19976;-73
2022/05/13 09:11:29;;;;;;;;;;;;;;;-144.99;73.37;52264.66;4988651;28;19983;-73
2022/05/13 09:14:01;;;;;;;;;;;;;;;-144.99;73.37;52317.66;4985080;28;20050;-73
2022/05/13 09:16:39;;;;;;;;;;;;;;;-144.99;72.51;52272.81;4982864;28;19973;-73
2022/05/13 09:19:06;;;;;;;;;;;;;;;-144.99;72.23;52287.06;4979495;28;20319;-72
2022/05/13 09:21:33;;;;;;;;;;;;;;;-144.99;71.85;52280.97;4976899;28;20027;-73
2022/05/13 09:23:59;;;;;;;;;;;;;;;-144.99;70.61;52272.81;4987794;28;20016;-72
2022/05/13 09:26:27;;;;;;;;;;;;;;;-144.99;70.53;52254.47;4981367;28;19980;-72
2022/05/13 09:29:04;;;;;;;;;;;;;;;-144.99;71.26;52295.22;4974322;28;19969;-72
2022/05/13 09:31:31;;;;;;;;;;;;;;;-144.99;71.54;52313.56;4986507;28;19975;-73
2022/05/13 09:33:58;;;;;;;;;;;;;;;-144.99;70.87;52311.53;4980829;28;19998;-73
2022/05/13 09:36:32;;;;;;;;;;;;;;;-144.99;69.44;52260.56;4976950;28;19968;-72
2022/05/13 09:38:59;;;;;;;;;;;;;;;-144.99;70.19;52297.25;4986244;28;19971;-72
2022/05/13 09:41:27;;;;;;;;;;;;;;;-144.99;70.60;52301.34;4986432;28;19955;-74
2022/05/13 09:43:54;;;;;;;;;;;;;;;-144.99;71.62;52305.41;4985179;28;20014;-72
2022/05/13 09:46:23;;;;;;;;;;;;;;;-144.99;73.20;52262.63;4987135;28;19979;-73
2022/05/13 09:48:54;;;;;;;;;;;;;;;-144.99;72.51;52297.25;4987766;28;19965;-73
2022/05/13 09:51:25;;;;;;;;;;;;;;;-144.99;72.12;52262.63;4987302;28;19975;-72
2022/05/13 09:54:02;;;;;;;;;;;;;;;-144.99;71.45;52299.31;4985521;28;20424;-72
2022/05/13 09:56:34;;;;;;;;;;;;;;;-144.99;69.68;52262.63;4980525;28;19946;-72
2022/05/13 09:59:04;;;;;;;;;;;;;;;-144.99;68.68;52264.66;4984388;28;19951;-72
2022/05/13 10:01:32;;;;;;;;;;;;;;;-144.99;66.80;52227.97;4982809;28;19946;-71
2022/05/13 10:04:08;;;;;;;;;;;;;;;-144.99;65.98;52223.88;4984360;28;19930;-72
2022/05/13 10:06:36;;;;;;;;;;;;;;;-144.99;64.30;52299.31;4980482;28;19937;-71
2022/05/13 10:14:30;;;;;;;;;;;;;;;-144.99;72.08;52313.56;4980462;28;20031;-73
2022/05/13 10:17:01;;;;;;;;;;;;;;;-144.99;89.42;52309.50;4984461;28;20409;-73
2022/05/13 10:19:31;;;;;;;;;;;;;;;-144.99;97.19;52301.34;4973140;28;19983;-74
2022/05/13 10:22:01;;;;;;;;;;;;;;;-144.99;100.00;52358.41;4974572;28;19965;-74
2022/05/13 10:24:33;;;;;;;;;;;;;;;-144.99;100.00;52354.34;4981939;28;19981;-76
2022/05/13 10:27:01;;;;;;;;;;;;;;;-144.99;100.00;52358.41;4645661;28;9999994;-74
2022/05/13 10:29:28;;;;;;;;;;;;;;;-144.99;100.00;52333.94;4976362;28;19980;-74
2022/05/13 10:31:56;;;;;;;;;;;;;;;-144.99;100.00;52293.19;4986568;28;19995;-71
2022/05/13 10:34:29;;;;;;;;;;;;;;;-144.99;100.00;52325.81;4985940;28;19995;-75
2022/05/13 10:36:59;;;;;;;;;;;;;;;-144.99;100.00;52309.50;4991917;28;19988;-75
2022/05/13 10:39:34;;;;;;;;;;;;;;;-144.99;100.00;52333.94;4992251;28;20384;-73
2022/05/13 10:42:04;;;;;;;;;;;;;;;-144.99;100.00;52384.91;4991123;28;19976;-72
2022/05/13 10:44:34;;;;;;;;;;;;;;;-144.99;100.00;52338.03;4981360;28;19992;-74
2022/05/13 10:47:02;;;;;;;;;;;;;;;-144.99;100.00;52307.47;4989780;28;20003;-73
2022/05/13 10:49:33;;;;;;;;;;;;;;;-144.99;100.00;52297.25;4985501;28;19989;-74
2022/05/13 10:52:03;;;;;;;;;;;;;;;-144.99;100.00;52325.81;4992020;28;19994;-75
2022/05/13 10:54:43;;;;;;;;;;;;;;;-144.99;100.00;52325.81;4990101;28;19959;-74
2022/05/13 10:57:13;;;;;;;;;;;;;;;-144.99;100.00;52287.06;4990553;28;20067;-73
2022/05/13 10:59:46;;;;;;;;;;;;;;;-144.99;100.00;52297.25;4991092;28;20295;-73
2022/05/13 11:02:24;;;;;;;;;;;;;;;-144.99;97.04;52317.66;4991471;28;19983;-73
2022/05/13 11:04:59;;;;;;;;;;;;;;;-144.99;95.10;52285.03;4979651;28;20005;-74
2022/05/13 11:07:30;;;;;;;;;;;;;;;-144.99;91.63;52289.13;4991705;28;19979;-74
2022/05/13 11:10:00;;;;;;;;;;;;;;;-144.99;92.35;52303.38;4991222;28;20468;-73
2022/05/13 11:12:33;;;;;;;;;;;;;;;-144.99;94.24;52285.03;4990547;28;19983;-74
2022/05/13 11:15:05;;;;;;;;;;;;;;;-144.99;95.86;52307.47;4985951;28;19988;-74
2022/05/13 11:17:36;;;;;;;;;;;;;;;-144.99;93.61;52227.97;4990662;28;19975;-73
2022/05/13 11:20:08;;;;;;;;;;;;;;;-144.99;90.26;52199.44;4975460;28;19983;-75
2022/05/13 11:22:37;;;;;;;;;;;;;;;-144.99;87.41;52285.03;4987485;28;19984;-74
2022/05/13 11:28:01;;;;;;;;;;;;;;;-144.99;81.49;52252.44;4989752;28;20347;-73
2022/05/13 11:30:32;;;;;;;;;;;;;;;-144.99;82.14;52297.25;4989087;28;19994;-74
2022/05/13 11:33:01;;;;;;;;;;;;;;;-144.99;81.30;52272.81;4988132;28;19969;-72
2022/05/13 11:35:38;;;;;;;;;;;;;;;-144.99;83.35;52264.66;4998704;28;19974;-73
2022/05/13 11:38:09;;;;;;;;;;;;;;;-144.99;83.94;52291.16;4990387;28;19956;-75
2022/05/13 11:40:41;;;;;;;;;;;;;;;-144.99;83.68;52313.56;4990886;28;19973;-74
2022/05/13 11:43:20;;;;;;;;;;;;;;;-144.99;83.85;52268.72;4986263;28;19955;-74
2022/05/13 11:45:57;;;;;;;;;;;;;;;-144.99;83.78;52242.22;4979166;28;19977;-75
2022/05/13 11:48:25;;;;;;;;;;;;;;;-144.99;80.12;52262.63;4990573;28;19969;-74
2022/05/13 11:50:54;;;;;;;;;;;;;;;-144.99;78.84;52291.16;4989877;28;19976;-74
2022/05/13 11:53:41;;;;;;;;;;;;;;;-144.99;79.08;52272.81;4988684;28;19954;-74
2022/05/13 11:56:13;;;;;;;;;;;;;;;-144.99;76.49;52289.13;4982212;28;19958;-74
2022/05/13 11:58:47;;;;;;;;;;;;;;;-144.99;74.46;52246.31;4990901;28;19969;-74
2022/05/13 12:01:14;;;;;;;;;;;;;;;-144.99;73.79;52297.25;4990978;28;19966;-75
2022/05/13 12:03:40;;;;;;;;;;;;;;;-144.99;71.95;52301.34;4987423;28;19951;-76
2022/05/13 12:06:10;;;;;;;;;;;;;;;-144.99;70.68;52285.03;4990078;28;19973;-74
2022/05/13 12:08:41;;;;;;;;;;;;;;;-144.99;70.30;52293.19;4978474;28;20022;-74
2022/05/13 12:11:18;;;;;;;;;;;;;;;-144.99;70.23;52301.34;4992040;28;20026;-73
2022/05/13 12:13:52;;;;;;;;;;;;;;;-144.99;69.77;52264.66;4989776;28;19956;-73
2022/05/13 12:16:29;;;;;;;;;;;;;;;-144.99;70.53;52285.03;4986100;28;19991;-73
2022/05/13 12:19:00;;;;;;;;;;;;;;;-144.99;69.98;52297.25;4978786;28;20065;-73
2022/05/13 12:21:33;;;;;;;;;;;;;;;-144.99;70.56;52297.25;4990323;28;20425;-73
2022/05/13 12:24:02;;;;;;;;;;;;;;;-144.99;71.03;52309.50;4986261;28;20062;-75
2022/05/13 12:26:44;;;;;;;;;;;;;;;-144.99;70.78;52338.03;4990387;28;20510;-73
2022/05/13 12:29:18;;;;;;;;;;;;;;;-144.99;70.60;52291.16;4986886;28;19973;-74
2022/05/13 12:31:47;;;;;;;;;;;;;;;-144.99;71.06;52299.31;4981959;28;19964;-73
2022/05/13 12:39:56;;;;;;;;;;;;;;;-144.99;72.63;52321.72;4991802;28;20017;-73
2022/05/13 12:42:44;;;;;;;;;;;;;;;-144.99;72.14;52305.41;4988837;28;19961;-75
2022/05/13 12:45:12;;;;;;;;;;;;;;;-144.99;72.13;52264.66;4986007;28;20029;-75
2022/05/13 12:47:58;;;;;;;;;;;;;;;-144.99;70.80;52295.22;4983655;28;19971;-74
2022/05/13 12:50:29;;;;;;;;;;;;;;;-144.99;69.52;52276.88;4990325;28;19973;-74
2022/05/13 12:52:56;;;;;;;;;;;;;;;-144.99;68.80;52305.41;4993994;28;19972;-75
2022/05/13 12:55:24;;;;;;;;;;;;;;;-144.99;68.59;52285.03;4990845;28;20073;-72
2022/05/13 12:57:54;;;;;;;;;;;;;;;-144.99;68.91;52307.47;4978002;28;22764;-75
2022/05/13 13:00:21;;;;;;;;;;;;;;;-144.99;69.16;52252.44;4988660;28;20024;-74
2022/05/13 13:02:50;;;;;;;;;;;;;;;-144.99;70.25;52305.41;4984596;28;20004;-73
2022/05/13 13:05:21;;;;;;;;;;;;;;;-144.99;71.08;52319.69;4990210;28;19984;-74
2022/05/13 13:07:47;;;;;;;;;;;;;;;-144.99;72.01;52325.81;4989069;28;19993;-72